createdAt,value
2023-04-09T00:00:36.905Z,467.00
2023-04-09T00:01:36.978Z,469.00
2023-04-09T00:02:37.019Z,469.00
2023-04-09T00:03:37.084Z,469.00
2023-04-09T00:04:37.092Z,470.00
2023-04-09T00:05:37.113Z,471.00
2023-04-09T00:06:37.106Z,470.00
2023-04-09T00:07:37.133Z,472.00
2023-04-09T00:08:37.210Z,472.00
2023-04-09T00:09:37.217Z,472.00
2023-04-09T00:10:37.223Z,471.00
2023-04-09T00:11:37.311Z,472.00
2023-04-09T00:12:37.311Z,472.00
2023-04-09T00:13:39.669Z,471.00
2023-04-09T00:14:37.332Z,471.00
2023-04-09T00:15:37.312Z,469.00
2023-04-09T00:16:37.350Z,467.00
2023-04-09T00:17:37.343Z,469.00
2023-04-09T00:18:37.292Z,472.00
2023-04-09T00:19:37.346Z,471.00
2023-04-09T00:20:37.306Z,472.00
2023-04-09T00:21:37.287Z,473.00
2023-04-09T00:22:37.279Z,469.00
2023-04-09T00:23:37.284Z,468.00
2023-04-09T00:24:37.291Z,468.00
2023-04-09T00:25:37.244Z,467.00
2023-04-09T00:26:37.260Z,470.00
2023-04-09T00:27:37.237Z,468.00
2023-04-09T00:28:37.293Z,468.00
2023-04-09T00:29:37.219Z,469.00
2023-04-09T00:30:37.229Z,469.00
2023-04-09T00:31:37.293Z,471.00
2023-04-09T00:32:37.228Z,471.00
2023-04-09T00:33:37.210Z,474.00
2023-04-09T00:34:37.216Z,474.00
2023-04-09T00:35:37.223Z,475.00
2023-04-09T00:36:37.178Z,474.00
2023-04-09T00:37:37.154Z,475.00
2023-04-09T00:38:37.149Z,473.00
2023-04-09T00:39:37.150Z,471.00
2023-04-09T00:40:37.149Z,473.00
2023-04-09T00:41:37.166Z,472.00
2023-04-09T00:42:37.139Z,473.00
2023-04-09T00:43:37.128Z,471.00
2023-04-09T00:44:37.138Z,469.00
2023-04-09T00:45:37.143Z,468.00
2023-04-09T00:46:37.094Z,470.00
2023-04-09T00:47:37.129Z,471.00
2023-04-09T00:48:37.083Z,470.00
2023-04-09T00:49:37.112Z,471.00
2023-04-09T00:50:37.062Z,472.00
2023-04-09T00:51:37.059Z,471.00
2023-04-09T00:52:37.044Z,473.00
2023-04-09T00:53:37.069Z,471.00
2023-04-09T00:54:37.040Z,471.00
2023-04-09T00:55:37.051Z,471.00
2023-04-09T00:56:37.038Z,472.00
2023-04-09T00:57:37.022Z,473.00
2023-04-09T00:58:36.988Z,475.00
2023-04-09T00:59:37.016Z,475.00
2023-04-09T01:00:36.981Z,475.00
2023-04-09T01:01:37.075Z,476.00
2023-04-09T01:02:37.189Z,475.00
2023-04-09T01:03:37.050Z,476.00
2023-04-09T01:04:36.974Z,475.00
2023-04-09T01:05:36.953Z,473.00
2023-04-09T01:06:37.011Z,471.00
2023-04-09T01:07:36.953Z,469.00
2023-04-09T01:08:36.950Z,469.00
2023-04-09T01:09:36.939Z,471.00
2023-04-09T01:10:37.013Z,473.00
2023-04-09T01:11:36.916Z,472.00
2023-04-09T01:12:36.942Z,472.00
2023-04-09T01:13:36.917Z,472.00
2023-04-09T01:14:36.908Z,473.00
2023-04-09T01:15:36.930Z,473.00
2023-04-09T01:16:37.043Z,471.00
2023-04-09T01:17:37.046Z,469.00
2023-04-09T01:18:37.070Z,471.00
2023-04-09T01:19:37.077Z,469.00
2023-04-09T01:20:37.151Z,469.00
2023-04-09T01:21:37.157Z,470.00
2023-04-09T01:22:37.186Z,470.00
2023-04-09T01:23:37.245Z,466.00
2023-04-09T01:24:37.290Z,468.00
2023-04-09T01:25:37.339Z,471.00
2023-04-09T01:26:37.375Z,471.00
2023-04-09T01:27:37.404Z,470.00
2023-04-09T01:28:37.434Z,472.00
2023-04-09T01:29:37.484Z,471.00
2023-04-09T01:30:37.537Z,470.00
2023-04-09T01:31:37.551Z,470.00
2023-04-09T01:32:37.639Z,468.00
2023-04-09T01:33:37.624Z,465.00
2023-04-09T01:34:37.641Z,467.00
2023-04-09T01:35:37.803Z,469.00
2023-04-09T01:36:37.730Z,470.00
2023-04-09T01:37:37.752Z,469.00
2023-04-09T01:38:37.780Z,470.00
2023-04-09T01:39:37.828Z,472.00
2023-04-09T01:40:37.908Z,474.00
2023-04-09T01:41:37.915Z,475.00
2023-04-09T01:42:37.963Z,474.00
2023-04-09T01:43:37.970Z,474.00
2023-04-09T01:44:38.062Z,473.00
2023-04-09T01:45:38.170Z,471.00
2023-04-09T01:46:38.117Z,470.00
2023-04-09T01:47:38.182Z,470.00
2023-04-09T01:48:38.207Z,472.00
2023-04-09T01:49:38.247Z,473.00
2023-04-09T01:50:38.280Z,473.00
2023-04-09T01:51:38.321Z,473.00
2023-04-09T01:52:38.369Z,473.00
2023-04-09T01:53:38.384Z,472.00
2023-04-09T01:54:38.444Z,472.00
2023-04-09T01:55:38.520Z,472.00
2023-04-09T01:56:38.530Z,472.00
2023-04-09T01:57:38.584Z,472.00
2023-04-09T01:58:38.607Z,473.00
2023-04-09T01:59:38.647Z,475.00
2023-04-09T02:00:38.652Z,475.00
2023-04-09T02:01:38.737Z,473.00
2023-04-09T02:02:38.807Z,473.00
2023-04-09T02:03:38.853Z,470.00
2023-04-09T02:04:38.858Z,469.00
2023-04-09T02:05:38.890Z,471.00
2023-04-09T02:06:38.964Z,470.00
2023-04-09T02:07:39.000Z,471.00
2023-04-09T02:08:39.026Z,472.00
2023-04-09T02:09:39.059Z,472.00
2023-04-09T02:10:39.127Z,473.00
2023-04-09T02:11:39.153Z,473.00
2023-04-09T02:12:39.213Z,474.00
2023-04-09T02:13:39.222Z,474.00
2023-04-09T02:14:39.279Z,474.00
2023-04-09T02:15:39.341Z,474.00
2023-04-09T02:16:39.410Z,473.00
2023-04-09T02:17:39.556Z,472.00
2023-04-09T02:18:39.475Z,473.00
2023-04-09T02:19:39.524Z,475.00
2023-04-09T02:20:39.546Z,476.00
2023-04-09T02:21:39.594Z,477.00
2023-04-09T02:22:39.635Z,479.00
2023-04-09T02:23:39.669Z,477.00
2023-04-09T02:24:39.701Z,479.00
2023-04-09T02:25:39.776Z,480.00
2023-04-09T02:26:39.801Z,479.00
2023-04-09T02:27:39.893Z,479.00
2023-04-09T02:28:39.896Z,480.00
2023-04-09T02:29:39.957Z,481.00
2023-04-09T02:30:39.988Z,480.00
2023-04-09T02:31:40.056Z,479.00
2023-04-09T02:32:40.135Z,477.00
2023-04-09T02:33:40.142Z,475.00
2023-04-09T02:34:40.202Z,475.00
2023-04-09T02:35:40.353Z,476.00
2023-04-09T02:36:40.277Z,475.00
2023-04-09T02:37:40.325Z,473.00
2023-04-09T02:38:40.380Z,474.00
2023-04-09T02:39:40.436Z,475.00
2023-04-09T02:40:40.484Z,475.00
2023-04-09T02:41:40.509Z,476.00
2023-04-09T02:42:40.576Z,477.00
2023-04-09T02:43:40.567Z,477.00
2023-04-09T02:44:40.639Z,476.00
2023-04-09T02:45:40.690Z,476.00
2023-04-09T02:46:40.753Z,476.00
2023-04-09T02:47:40.766Z,473.00
2023-04-09T02:48:40.810Z,473.00
2023-04-09T02:49:40.849Z,472.00
2023-04-09T02:50:40.885Z,472.00
2023-04-09T02:51:40.938Z,473.00
2023-04-09T02:52:40.969Z,474.00
2023-04-09T02:53:40.985Z,473.00
2023-04-09T02:54:41.065Z,474.00
2023-04-09T02:55:41.089Z,474.00
2023-04-09T02:56:41.126Z,473.00
2023-04-09T02:57:41.165Z,473.00
2023-04-09T02:58:41.227Z,473.00
2023-04-09T02:59:41.278Z,476.00
2023-04-09T03:00:41.286Z,480.00
2023-04-09T03:01:41.372Z,481.00
2023-04-09T03:02:41.510Z,481.00
2023-04-09T03:03:41.491Z,479.00
2023-04-09T03:04:41.469Z,478.00
2023-04-09T03:05:41.471Z,479.00
2023-04-09T03:06:41.532Z,477.00
2023-04-09T03:07:41.554Z,475.00
2023-04-09T03:08:41.595Z,477.00
2023-04-09T03:09:41.674Z,476.00
2023-04-09T03:10:41.653Z,476.00
2023-04-09T03:11:41.708Z,477.00
2023-04-09T03:12:41.751Z,475.00
2023-04-09T03:13:41.763Z,476.00
2023-04-09T03:14:41.914Z,479.00
2023-04-09T03:15:41.903Z,475.00
2023-04-09T03:16:41.895Z,476.00
2023-04-09T03:17:42.003Z,476.00
2023-04-09T03:18:41.969Z,477.00
2023-04-09T03:19:42.051Z,474.00
2023-04-09T03:20:42.031Z,473.00
2023-04-09T03:21:42.096Z,473.00
2023-04-09T03:22:42.101Z,473.00
2023-04-09T03:23:42.155Z,475.00
2023-04-09T03:24:42.193Z,478.00
2023-04-09T03:25:42.240Z,478.00
2023-04-09T03:26:42.295Z,475.00
2023-04-09T03:27:42.285Z,474.00
2023-04-09T03:28:42.340Z,473.00
2023-04-09T03:29:42.397Z,474.00
2023-04-09T03:30:42.396Z,475.00
2023-04-09T03:31:42.507Z,475.00
2023-04-09T03:32:42.516Z,475.00
2023-04-09T03:33:42.600Z,475.00
2023-04-09T03:34:42.583Z,476.00
2023-04-09T03:35:42.611Z,476.00
2023-04-09T03:36:42.630Z,475.00
2023-04-09T03:37:42.662Z,476.00
2023-04-09T03:38:42.731Z,477.00
2023-04-09T03:39:42.747Z,476.00
2023-04-09T03:40:42.817Z,475.00
2023-04-09T03:41:42.866Z,474.00
2023-04-09T03:42:42.882Z,475.00
2023-04-09T03:43:42.925Z,477.00
2023-04-09T03:44:42.971Z,481.00
2023-04-09T03:45:42.993Z,480.00
2023-04-09T03:46:43.073Z,477.00
2023-04-09T03:47:43.121Z,478.00
2023-04-09T03:48:43.142Z,478.00
2023-04-09T03:49:43.181Z,479.00
2023-04-09T03:50:43.186Z,479.00
2023-04-09T03:51:43.221Z,479.00
2023-04-09T03:52:43.260Z,476.00
2023-04-09T03:53:43.352Z,480.00
2023-04-09T03:54:43.487Z,479.00
2023-04-09T03:55:43.401Z,480.00
2023-04-09T03:56:43.485Z,480.00
2023-04-09T03:57:43.500Z,481.00
2023-04-09T03:58:43.552Z,482.00
2023-04-09T03:59:43.593Z,482.00
2023-04-09T04:00:43.629Z,481.00
2023-04-09T04:01:43.713Z,481.00
2023-04-09T04:02:43.804Z,481.00
2023-04-09T04:03:43.892Z,479.00
2023-04-09T04:04:43.812Z,479.00
2023-04-09T04:05:43.825Z,478.00
2023-04-09T04:06:43.919Z,476.00
2023-04-09T04:07:43.940Z,475.00
2023-04-09T04:08:43.935Z,474.00
2023-04-09T04:09:43.988Z,474.00
2023-04-09T04:10:44.025Z,475.00
2023-04-09T04:11:44.102Z,474.00
2023-04-09T04:12:44.089Z,475.00
2023-04-09T04:13:44.130Z,475.00
2023-04-09T04:14:44.170Z,477.00
2023-04-09T04:15:44.222Z,477.00
2023-04-09T04:16:44.302Z,477.00
2023-04-09T04:17:44.389Z,475.00
2023-04-09T04:18:44.332Z,474.00
2023-04-09T04:19:44.365Z,474.00
2023-04-09T04:20:44.391Z,474.00
2023-04-09T04:21:44.464Z,475.00
2023-04-09T04:22:44.497Z,475.00
2023-04-09T04:23:44.511Z,475.00
2023-04-09T04:24:44.577Z,476.00
2023-04-09T04:25:44.599Z,476.00
2023-04-09T04:26:44.670Z,475.00
2023-04-09T04:27:44.686Z,471.00
2023-04-09T04:28:44.727Z,471.00
2023-04-09T04:29:44.744Z,469.00
2023-04-09T04:30:44.793Z,469.00
2023-04-09T04:31:44.854Z,470.00
2023-04-09T04:32:44.910Z,471.00
2023-04-09T04:33:44.924Z,469.00
2023-04-09T04:34:45.335Z,472.00
2023-04-09T04:35:45.392Z,473.00
2023-04-09T04:36:44.980Z,472.00
2023-04-09T04:37:45.019Z,475.00
2023-04-09T04:38:45.003Z,476.00
2023-04-09T04:39:45.065Z,476.00
2023-04-09T04:40:45.120Z,475.00
2023-04-09T04:41:45.109Z,474.00
2023-04-09T04:42:45.142Z,475.00
2023-04-09T04:43:45.211Z,474.00
2023-04-09T04:44:45.230Z,474.00
2023-04-09T04:45:45.295Z,473.00
2023-04-09T04:46:45.353Z,472.00
2023-04-09T04:47:45.375Z,473.00
2023-04-09T04:48:45.418Z,472.00
2023-04-09T04:49:45.448Z,474.00
2023-04-09T04:50:45.483Z,474.00
2023-04-09T04:51:45.512Z,473.00
2023-04-09T04:52:45.535Z,472.00
2023-04-09T04:53:45.623Z,472.00
2023-04-09T04:54:45.678Z,471.00
2023-04-09T04:55:45.680Z,471.00
2023-04-09T04:56:45.757Z,474.00
2023-04-09T04:57:45.773Z,476.00
2023-04-09T04:58:45.802Z,477.00
2023-04-09T04:59:45.853Z,477.00
2023-04-09T05:00:45.881Z,476.00
2023-04-09T05:01:45.948Z,477.00
2023-04-09T05:02:46.102Z,479.00
2023-04-09T05:03:46.061Z,478.00
2023-04-09T05:04:46.022Z,477.00
2023-04-09T05:05:46.062Z,477.00
2023-04-09T05:06:46.137Z,476.00
2023-04-09T05:07:46.126Z,476.00
2023-04-09T05:08:46.192Z,473.00
2023-04-09T05:09:46.236Z,474.00
2023-04-09T05:10:46.258Z,474.00
2023-04-09T05:11:46.321Z,475.00
2023-04-09T05:12:46.343Z,476.00
2023-04-09T05:13:46.408Z,474.00
2023-04-09T05:14:46.452Z,474.00
2023-04-09T05:15:46.461Z,473.00
2023-04-09T05:16:46.605Z,473.00
2023-04-09T05:17:46.667Z,472.00
2023-04-09T05:18:46.623Z,474.00
2023-04-09T05:19:46.661Z,473.00
2023-04-09T05:20:46.710Z,474.00
2023-04-09T05:21:47.533Z,473.00
2023-04-09T05:22:46.785Z,473.00
2023-04-09T05:23:46.842Z,473.00
2023-04-09T05:24:46.861Z,473.00
2023-04-09T05:25:47.078Z,474.00
2023-04-09T05:26:46.982Z,475.00
2023-04-09T05:27:47.025Z,474.00
2023-04-09T05:28:47.030Z,476.00
2023-04-09T05:29:47.084Z,476.00
2023-04-09T05:30:47.163Z,473.00
2023-04-09T05:31:47.164Z,474.00
2023-04-09T05:32:47.278Z,474.00
2023-04-09T05:33:47.232Z,474.00
2023-04-09T05:34:47.332Z,475.00
2023-04-09T05:35:47.341Z,475.00
2023-04-09T05:36:47.372Z,477.00
2023-04-09T05:37:47.390Z,479.00
2023-04-09T05:38:47.439Z,480.00
2023-04-09T05:39:47.486Z,477.00
2023-04-09T05:40:47.540Z,476.00
2023-04-09T05:41:47.585Z,475.00
2023-04-09T05:42:47.604Z,474.00
2023-04-09T05:43:47.653Z,473.00
2023-04-09T05:44:47.718Z,473.00
2023-04-09T05:45:47.740Z,470.00
2023-04-09T05:46:47.791Z,470.00
2023-04-09T05:47:47.854Z,470.00
2023-04-09T05:48:47.861Z,469.00
2023-04-09T05:49:47.906Z,470.00
2023-04-09T05:50:55.012Z,471.00
2023-04-09T05:51:48.962Z,472.00
2023-04-09T05:52:47.939Z,472.00
2023-04-09T05:53:47.941Z,470.00
2023-04-09T05:54:47.928Z,469.00
2023-04-09T05:55:47.918Z,469.00
2023-04-09T05:56:47.907Z,470.00
2023-04-09T05:57:47.919Z,471.00
2023-04-09T05:58:47.891Z,470.00
2023-04-09T05:59:47.921Z,470.00
2023-04-09T06:00:47.879Z,470.00
2023-04-09T06:01:47.924Z,471.00
2023-04-09T06:02:48.048Z,471.00
2023-04-09T06:03:48.019Z,472.00
2023-04-09T06:04:47.945Z,473.00
2023-04-09T06:05:47.919Z,475.00
2023-04-09T06:06:47.966Z,475.00
2023-04-09T06:07:48.024Z,475.00
2023-04-09T06:08:48.080Z,473.00
2023-04-09T06:09:48.099Z,474.00
2023-04-09T06:10:48.143Z,474.00
2023-04-09T06:11:48.193Z,473.00
2023-04-09T06:12:48.255Z,474.00
2023-04-09T06:13:48.258Z,475.00
2023-04-09T06:14:48.285Z,474.00
2023-04-09T06:15:48.491Z,475.00
2023-04-09T06:16:48.365Z,473.00
2023-04-09T06:17:48.448Z,474.00
2023-04-09T06:18:48.457Z,474.00
2023-04-09T06:19:48.497Z,475.00
2023-04-09T06:20:48.530Z,474.00
2023-04-09T06:21:49.510Z,472.00
2023-04-09T06:22:48.650Z,472.00
2023-04-09T06:23:48.670Z,474.00
2023-04-09T06:24:48.736Z,475.00
2023-04-09T06:25:48.727Z,474.00
2023-04-09T06:26:48.774Z,475.00
2023-04-09T06:27:48.858Z,473.00
2023-04-09T06:28:48.874Z,474.00
2023-04-09T06:29:48.922Z,477.00
2023-04-09T06:30:48.995Z,476.00
2023-04-09T06:31:48.994Z,476.00
2023-04-09T06:33:49.030Z,475.00
2023-04-09T06:34:49.037Z,474.00
2023-04-09T06:35:49.055Z,473.00
2023-04-09T06:36:49.017Z,474.00
2023-04-09T06:37:49.046Z,474.00
2023-04-09T06:38:48.987Z,474.00
2023-04-09T06:40:00.569Z,475.00
2023-04-09T06:40:49.996Z,477.00
2023-04-09T06:41:48.986Z,478.00
2023-04-09T06:42:48.975Z,475.00
2023-04-09T06:43:49.029Z,475.00
2023-04-09T06:44:48.940Z,476.00
2023-04-09T06:45:49.023Z,475.00
2023-04-09T06:46:49.375Z,476.00
2023-04-09T06:47:49.012Z,477.00
2023-04-09T06:48:48.943Z,475.00
2023-04-09T06:49:48.957Z,472.00
2023-04-09T06:50:48.894Z,476.00
2023-04-09T06:51:48.898Z,475.00
2023-04-09T06:52:48.905Z,474.00
2023-04-09T06:53:48.971Z,475.00
2023-04-09T06:54:48.949Z,475.00
2023-04-09T06:55:48.992Z,475.00
2023-04-09T06:56:49.037Z,477.00
2023-04-09T06:57:49.071Z,476.00
2023-04-09T06:58:49.091Z,477.00
2023-04-09T06:59:49.143Z,477.00
2023-04-09T07:00:49.145Z,478.00
2023-04-09T07:01:49.620Z,479.00
2023-04-09T07:02:49.476Z,480.00
2023-04-09T07:03:49.420Z,483.00
2023-04-09T07:04:49.422Z,484.00
2023-04-09T07:05:49.355Z,483.00
2023-04-09T07:06:49.388Z,481.00
2023-04-09T07:07:49.433Z,481.00
2023-04-09T07:08:49.463Z,483.00
2023-04-09T07:09:49.511Z,484.00
2023-04-09T07:10:49.564Z,485.00
2023-04-09T07:11:49.593Z,485.00
2023-04-09T07:12:49.604Z,484.00
2023-04-09T07:13:49.671Z,484.00
2023-04-09T07:14:49.706Z,484.00
2023-04-09T07:15:49.769Z,482.00
2023-04-09T07:16:49.777Z,481.00
2023-04-09T07:17:50.560Z,481.00
2023-04-09T07:18:49.858Z,482.00
2023-04-09T07:19:50.117Z,482.00
2023-04-09T07:20:49.953Z,483.00
2023-04-09T07:21:49.975Z,482.00
2023-04-09T07:22:50.013Z,482.00
2023-04-09T07:23:50.041Z,482.00
2023-04-09T07:24:50.098Z,484.00
2023-04-09T07:25:50.113Z,482.00
2023-04-09T07:26:52.081Z,481.00
2023-04-09T07:27:50.304Z,479.00
2023-04-09T07:28:50.348Z,480.00
2023-04-09T07:29:50.374Z,481.00
2023-04-09T07:30:50.394Z,483.00
2023-04-09T07:31:50.501Z,483.00
2023-04-09T07:32:50.558Z,483.00
2023-04-09T07:33:51.224Z,484.00
2023-04-09T07:34:50.583Z,484.00
2023-04-09T07:35:50.643Z,485.00
2023-04-09T07:36:50.674Z,484.00
2023-04-09T07:37:50.680Z,481.00
2023-04-09T07:38:51.104Z,479.00
2023-04-09T07:39:50.797Z,477.00
2023-04-09T07:40:50.836Z,477.00
2023-04-09T07:41:50.862Z,479.00
2023-04-09T07:42:50.918Z,481.00
2023-04-09T07:43:50.924Z,482.00
2023-04-09T07:44:50.986Z,482.00
2023-04-09T07:45:51.028Z,480.00
2023-04-09T07:46:51.162Z,481.00
2023-04-09T07:47:51.130Z,482.00
2023-04-09T07:48:51.400Z,482.00
2023-04-09T07:49:51.242Z,479.00
2023-04-09T07:50:51.248Z,474.00
2023-04-09T07:51:51.280Z,472.00
2023-04-09T07:52:51.377Z,471.00
2023-04-09T07:53:51.417Z,474.00
2023-04-09T07:54:51.438Z,475.00
2023-04-09T07:55:51.530Z,476.00
2023-04-09T07:56:51.530Z,475.00
2023-04-09T07:57:51.610Z,475.00
2023-04-09T07:58:51.792Z,475.00
2023-04-09T07:59:51.671Z,472.00
2023-04-09T08:00:51.762Z,473.00
2023-04-09T08:01:51.875Z,474.00
2023-04-09T08:02:51.936Z,474.00
2023-04-09T08:03:52.064Z,478.00
2023-04-09T08:04:52.042Z,476.00
2023-04-09T08:05:51.948Z,476.00
2023-04-09T08:06:52.017Z,476.00
2023-04-09T08:07:52.042Z,476.00
2023-04-09T08:08:52.248Z,475.00
2023-04-09T08:09:52.158Z,475.00
2023-04-09T08:10:52.197Z,476.00
2023-04-09T08:11:52.234Z,476.00
2023-04-09T08:12:52.259Z,475.00
2023-04-09T08:13:52.327Z,475.00
2023-04-09T08:14:52.371Z,475.00
2023-04-09T08:15:52.412Z,475.00
2023-04-09T08:16:53.221Z,476.00
2023-04-09T08:17:52.530Z,475.00
2023-04-09T08:18:52.939Z,477.00
2023-04-09T08:19:52.599Z,477.00
2023-04-09T08:20:52.624Z,478.00
2023-04-09T08:21:52.708Z,477.00
2023-04-09T08:22:52.715Z,476.00
2023-04-09T08:23:52.753Z,478.00
2023-04-09T08:24:52.844Z,477.00
2023-04-09T08:25:52.868Z,474.00
2023-04-09T08:26:52.904Z,473.00
2023-04-09T08:27:52.955Z,473.00
2023-04-09T08:28:53.170Z,475.00
2023-04-09T08:29:53.054Z,474.00
2023-04-09T08:30:53.081Z,477.00
2023-04-09T08:31:53.165Z,480.00
2023-04-09T08:32:53.215Z,480.00
2023-04-09T08:33:53.247Z,479.00
2023-04-09T08:34:53.268Z,478.00
2023-04-09T08:35:53.319Z,479.00
2023-04-09T08:36:53.380Z,480.00
2023-04-09T08:37:53.383Z,480.00
2023-04-09T08:38:53.586Z,479.00
2023-04-09T08:39:53.436Z,479.00
2023-04-09T08:40:53.478Z,481.00
2023-04-09T08:41:53.515Z,482.00
2023-04-09T08:42:53.552Z,484.00
2023-04-09T08:44:53.584Z,479.00
2023-04-09T08:45:53.621Z,477.00
2023-04-09T08:46:53.572Z,475.00
2023-04-09T08:47:53.644Z,474.00
2023-04-09T08:48:53.910Z,473.00
2023-04-09T08:49:53.548Z,472.00
2023-04-09T08:50:53.544Z,471.00
2023-04-09T08:51:53.561Z,471.00
2023-04-09T08:52:53.527Z,471.00
2023-04-09T08:53:53.526Z,470.00
2023-04-09T08:54:53.561Z,473.00
2023-04-09T08:55:53.526Z,473.00
2023-04-09T08:56:53.479Z,474.00
2023-04-09T08:57:53.519Z,473.00
2023-04-09T08:58:53.619Z,472.00
2023-04-09T08:59:53.501Z,473.00
2023-04-09T09:00:53.502Z,473.00
2023-04-09T09:01:53.640Z,472.00
2023-04-09T09:02:53.664Z,472.00
2023-04-09T09:03:53.555Z,474.00
2023-04-09T09:04:53.436Z,475.00
2023-04-09T09:05:53.442Z,473.00
2023-04-09T09:06:55.426Z,473.00
2023-04-09T09:07:54.110Z,474.00
2023-04-09T09:08:53.588Z,473.00
2023-04-09T09:09:53.422Z,473.00
2023-04-09T09:10:53.394Z,474.00
2023-04-09T09:11:53.398Z,474.00
2023-04-09T09:12:53.378Z,474.00
2023-04-09T09:13:53.377Z,472.00
2023-04-09T09:14:53.373Z,472.00
2023-04-09T09:15:53.382Z,470.00
2023-04-09T09:16:53.397Z,471.00
2023-04-09T09:17:53.384Z,472.00
2023-04-09T09:18:54.172Z,471.00
2023-04-09T09:19:53.335Z,471.00
2023-04-09T09:20:53.316Z,472.00
2023-04-09T09:21:53.310Z,472.00
2023-04-09T09:22:54.707Z,469.00
2023-04-09T09:23:53.322Z,470.00
2023-04-09T09:24:53.325Z,472.00
2023-04-09T09:25:53.310Z,472.00
2023-04-09T09:26:53.280Z,472.00
2023-04-09T09:27:53.294Z,472.00
2023-04-09T09:28:53.443Z,471.00
2023-04-09T09:29:53.304Z,472.00
2023-04-09T09:30:53.302Z,473.00
2023-04-09T09:31:53.232Z,471.00
2023-04-09T09:32:53.291Z,472.00
2023-04-09T09:33:53.244Z,471.00
2023-04-09T09:34:53.279Z,469.00
2023-04-09T09:35:53.273Z,471.00
2023-04-09T09:36:53.234Z,470.00
2023-04-09T09:37:53.201Z,470.00
2023-04-09T09:38:53.333Z,470.00
2023-04-09T09:39:53.186Z,469.00
2023-04-09T09:40:53.289Z,468.00
2023-04-09T09:41:53.206Z,469.00
2023-04-09T09:42:53.203Z,469.00
2023-04-09T09:43:53.169Z,468.00
2023-04-09T09:44:53.171Z,469.00
2023-04-09T09:45:53.215Z,470.00
2023-04-09T09:46:53.192Z,469.00
2023-04-09T09:47:53.198Z,469.00
2023-04-09T09:48:53.540Z,468.00
2023-04-09T09:49:53.212Z,468.00
2023-04-09T09:50:53.226Z,469.00
2023-04-09T09:51:53.237Z,468.00
2023-04-09T09:52:53.262Z,468.00
2023-04-09T09:53:53.239Z,470.00
2023-04-09T09:54:53.306Z,470.00
2023-04-09T09:55:53.273Z,468.00
2023-04-09T09:56:53.293Z,466.00
2023-04-09T09:57:53.307Z,465.00
2023-04-09T09:58:53.563Z,466.00
2023-04-09T09:59:53.308Z,468.00
2023-04-09T10:00:53.325Z,467.00
2023-04-09T10:01:53.462Z,468.00
2023-04-09T10:02:53.372Z,469.00
2023-04-09T10:03:53.294Z,470.00
2023-04-09T10:04:53.370Z,469.00
2023-04-09T10:05:53.316Z,470.00
2023-04-09T10:06:53.534Z,469.00
2023-04-09T10:07:53.318Z,469.00
2023-04-09T10:08:53.420Z,470.00
2023-04-09T10:09:53.347Z,472.00
2023-04-09T10:10:53.329Z,474.00
2023-04-09T10:11:53.339Z,475.00
2023-04-09T10:12:53.325Z,475.00
2023-04-09T10:13:54.189Z,474.00
2023-04-09T10:14:53.362Z,473.00
2023-04-09T10:15:53.421Z,473.00
2023-04-09T10:16:53.302Z,473.00
2023-04-09T10:17:53.326Z,473.00
2023-04-09T10:18:53.461Z,475.00
2023-04-09T10:19:53.307Z,475.00
2023-04-09T10:20:53.311Z,474.00
2023-04-09T10:21:53.293Z,471.00
2023-04-09T10:22:53.292Z,471.00
2023-04-09T10:23:53.331Z,472.00
2023-04-09T10:24:53.349Z,471.00
2023-04-09T10:25:53.352Z,473.00
2023-04-09T10:26:53.316Z,472.00
2023-04-09T10:27:53.318Z,471.00
2023-04-09T10:28:53.570Z,471.00
2023-04-09T10:29:53.362Z,472.00
2023-04-09T10:30:53.438Z,474.00
2023-04-09T10:31:53.455Z,474.00
2023-04-09T10:32:53.503Z,473.00
2023-04-09T10:33:53.461Z,474.00
2023-04-09T10:34:53.482Z,473.00
2023-04-09T10:35:53.546Z,472.00
2023-04-09T10:36:53.550Z,473.00
2023-04-09T10:37:53.625Z,472.00
2023-04-09T10:38:53.928Z,472.00
2023-04-09T10:39:53.748Z,469.00
2023-04-09T10:40:53.809Z,466.00
2023-04-09T10:41:53.869Z,466.00
2023-04-09T10:42:53.944Z,466.00
2023-04-09T10:43:53.974Z,467.00
2023-04-09T10:44:54.037Z,466.00
2023-04-09T10:45:54.103Z,468.00
2023-04-09T10:46:54.167Z,470.00
2023-04-09T10:47:54.250Z,470.00
2023-04-09T10:48:54.283Z,470.00
2023-04-09T10:49:54.368Z,470.00
2023-04-09T10:50:54.410Z,471.00
2023-04-09T10:51:54.440Z,469.00
2023-04-09T10:52:54.539Z,468.00
2023-04-09T10:53:54.596Z,465.00
2023-04-09T10:54:54.716Z,464.00
2023-04-09T10:55:54.779Z,464.00
2023-04-09T10:56:54.747Z,465.00
2023-04-09T10:57:54.800Z,468.00
2023-04-09T10:58:54.865Z,470.00
2023-04-09T10:59:54.945Z,471.00
2023-04-09T11:00:54.982Z,473.00
2023-04-09T11:01:55.126Z,472.00
2023-04-09T11:02:55.272Z,473.00
2023-04-09T11:03:55.137Z,474.00
2023-04-09T11:04:55.185Z,473.00
2023-04-09T11:05:55.240Z,472.00
2023-04-09T11:06:55.253Z,472.00
2023-04-09T11:07:55.327Z,473.00
2023-04-09T11:08:55.363Z,470.00
2023-04-09T11:09:55.424Z,468.00
2023-04-09T11:10:55.472Z,466.00
2023-04-09T11:11:55.516Z,466.00
2023-04-09T11:12:55.583Z,464.00
2023-04-09T11:13:55.613Z,464.00
2023-04-09T11:14:55.685Z,465.00
2023-04-09T11:15:55.729Z,465.00
2023-04-09T11:16:55.774Z,467.00
2023-04-09T11:17:55.846Z,465.00
2023-04-09T11:18:55.854Z,467.00
2023-04-09T11:19:55.949Z,466.00
2023-04-09T11:20:55.995Z,466.00
2023-04-09T11:21:56.060Z,463.00
2023-04-09T11:22:56.125Z,462.00
2023-04-09T11:23:56.092Z,463.00
2023-04-09T11:24:56.175Z,464.00
2023-04-09T11:25:56.212Z,464.00
2023-04-09T11:26:56.247Z,463.00
2023-04-09T11:27:56.306Z,462.00
2023-04-09T11:28:56.346Z,464.00
2023-04-09T11:29:56.427Z,464.00
2023-04-09T11:30:56.466Z,464.00
2023-04-09T11:31:56.554Z,462.00
2023-04-09T11:32:56.567Z,463.00
2023-04-09T11:33:56.588Z,460.00
2023-04-09T11:34:56.617Z,461.00
2023-04-09T11:35:56.689Z,461.00
2023-04-09T11:36:56.698Z,462.00
2023-04-09T11:37:56.750Z,463.00
2023-04-09T11:38:56.797Z,464.00
2023-04-09T11:39:57.923Z,466.00
2023-04-09T11:40:56.885Z,465.00
2023-04-09T11:41:56.884Z,466.00
2023-04-09T11:42:56.962Z,466.00
2023-04-09T11:43:57.006Z,466.00
2023-04-09T11:44:57.046Z,468.00
2023-04-09T11:45:57.718Z,467.00
2023-04-09T11:46:57.173Z,469.00
2023-04-09T11:47:57.175Z,470.00
2023-04-09T11:48:57.217Z,467.00
2023-04-09T11:49:57.267Z,465.00
2023-04-09T11:50:57.330Z,464.00
2023-04-09T11:51:57.362Z,463.00
2023-04-09T11:52:57.399Z,463.00
2023-04-09T11:53:57.434Z,464.00
2023-04-09T11:54:57.534Z,464.00
2023-04-09T11:55:57.546Z,462.00
2023-04-09T11:56:57.589Z,460.00
2023-04-09T11:57:57.652Z,459.00
2023-04-09T11:58:57.713Z,460.00
2023-04-09T11:59:57.728Z,461.00
2023-04-09T12:00:57.794Z,462.00
2023-04-09T12:01:57.922Z,459.00
2023-04-09T12:02:58.069Z,461.00
2023-04-09T12:03:58.173Z,460.00
2023-04-09T12:04:58.121Z,460.00
2023-04-09T12:05:58.075Z,460.00
2023-04-09T12:06:58.129Z,461.00
2023-04-09T12:07:58.168Z,462.00
2023-04-09T12:08:58.220Z,463.00
2023-04-09T12:09:58.259Z,462.00
2023-04-09T12:10:58.314Z,462.00
2023-04-09T12:11:58.386Z,461.00
2023-04-09T12:12:58.437Z,461.00
2023-04-09T12:13:58.479Z,461.00
2023-04-09T12:14:58.552Z,462.00
2023-04-09T12:15:59.203Z,462.00
2023-04-09T12:16:58.694Z,461.00
2023-04-09T12:17:58.677Z,460.00
2023-04-09T12:18:58.731Z,462.00
2023-04-09T12:19:58.810Z,460.00
2023-04-09T12:20:58.842Z,458.00
2023-04-09T12:21:58.918Z,458.00
2023-04-09T12:22:58.982Z,457.00
2023-04-09T12:23:59.020Z,457.00
2023-04-09T12:24:59.067Z,459.00
2023-04-09T12:25:59.141Z,459.00
2023-04-09T12:26:59.189Z,461.00
2023-04-09T12:27:59.219Z,464.00
2023-04-09T12:28:59.288Z,463.00
2023-04-09T12:29:59.358Z,462.00
2023-04-09T12:30:59.508Z,461.00